Main page
METAR-TAF:

METAR-TAF

Airports :

Caracas, Venezuela

Simón Bolívar International Airport

latitude: 10-36N, longitude: 066-59W, elevation: 43 m

Current weather observation

The report was made 1 hour and 55 minutes ago, at 08:00 UTC
Calm wind
Temperature 26°C
Humidity 94%
Pressure 1010 hPa
Visibility 10 km or more
Few clouds at a height of 1600 ft

METAR: SVMI 220800Z 00000KT 9999 FEW016 26/25 Q1010

Time: 05:55 (09:55 UTC)

Forecast

The report was made 5 hours and 55 minutes ago, at 04:00 UTC
Forecast valid from 22 at 06 UTC to 23 at 06 UTC
Wind 2 kt from the Northeast
Visibility 10 km or more
Broken clouds at a height of 1600 ft
Becoming
from 22 at 06 UTC to 22 at 10 UTC
Wind kt from the North
Visibility 10 km or more
Scattered clouds at a height of 1600 ft

TAF: SVMI 220400Z 2206/2306 05002KT 9999 BKN016 TX33/18Z TN25/09Z BECMG 2206/2210 00000KT 9999 SCT016

Weather observations and forecasts of more than 4000 airports (METAR and TAF reports).

The available stations are represented by yellow and red dots on the map.

Hover mouse over dot to see the name of the station.

Then click to see weather observations and forecasts.

To change the map : click on the green buttons with a black cross to zoom in, on the green button with a dash to zoom out, or on the green arrows for adjacent maps.


METAR-TAF: